• Join FlightAware (Why Join?)
  • Login
  • US Flag 
01:35AM EST


 

Airport Tracker/Info


-or-


 

Live Flight TrackerFlight Track Log ✈ EVA36 ✈ 10-May-2012 ✈ RCTP / TPE - CYYZ

Flight Track Log - Related Links

Times and Time Zones

All times are in EDT time to prevent confusion due to time zone crossing. See the EVA36 flight status page for this flight to view local times or setup timezone preferences in your user account.

Time Position Orientation Groundspeed Altitude Reporting Facility
EDT Latitude Longitude Course Direction KTS MPH feet Rate Location/Type
03:30PM 49.1000 -146.6833 89° East 534 615 33,000  Level Oakland Oceanic (ODAPS)
03:57PM 49.0333 -140.6667 94° East 522 601 33,000  Level Oakland Oceanic (ODAPS)
04:00PM 49.0000 -140.0000 87° East 524 603 33,000 60 Level Oakland Oceanic (ODAPS)
04:23PM 49.0500 -134.7833 92° East 518 596 35,000  Climbing Oakland Oceanic (ODAPS)
04:36PM 48.9667 -131.9667 92° East 540 621 35,000  Level Vancouver Center
04:41PM 48.9333 -130.8667 90° East 520 598 35,000  Level Vancouver Center
04:42PM 48.9333 -130.6667 90° East 520 598 35,000  Level Vancouver Center
04:43PM 48.9333 -130.4333 97° East 520 598 35,000  Level Vancouver Center
04:44PM 48.9167 -130.2333 96° East 520 598 35,000  Level Vancouver Center
04:45PM 48.9000 -130.0000 90° East 520 598 35,000  Level Vancouver Center
04:46PM 48.9000 -129.7667 90° East 520 598 35,000  Level Vancouver Center
04:47PM 48.9000 -129.5667 96° East 520 598 35,000  Level Vancouver Center
04:48PM 48.8833 -129.3333 90° East 520 598 35,000  Level Vancouver Center
04:49PM 48.8833 -129.1333 102° East 520 598 35,000  Level Vancouver Center
04:50PM 48.8500 -128.9000 90° East 520 598 35,000  Level Vancouver Center
04:51PM 48.8500 -128.6667 90° East 520 598 35,000  Level Vancouver Center
04:52PM 48.8500 -128.4500 97° East 520 598 35,000  Level Vancouver Center
04:53PM 48.8333 -128.2333 97° East 520 598 35,000  Level Vancouver Center
04:54PM 48.8167 -128.0333 96° East 520 598 35,000  Level Vancouver Center
04:55PM 48.8000 -127.8000 90° East 520 598 35,000  Level Vancouver Center
04:56PM 48.8000 -127.5833 96° East 520 598 35,000  Level Vancouver Center
04:57PM 48.7833 -127.3500 97° East 530 610 35,000  Level Vancouver Center
04:58PM 48.7667 -127.1500 96° East 520 598 35,000  Level Vancouver Center
04:59PM 48.7500 -126.9167 97° East 520 598 35,000  Level Vancouver Center
05:00PM 48.7333 -126.7167 96° East 520 598 35,000  Level Vancouver Center
05:01PM 48.7167 -126.4833 90° East 520 598 35,000  Level Vancouver Center
05:02PM 48.7167 -126.2500 104° East 520 598 35,000  Level Vancouver Center
05:03PM 48.6833 -126.0500 91° East 520 598 35,000 -60 Level Vancouver Center
05:05PM 48.6797 -125.6553 97° East 516 594 34,900 -60 Descending Seattle Center
05:06PM 48.6631 -125.4381 97° East 518 596 34,900  Level Seattle Center
05:07PM 48.6458 -125.2211 97° East 520 598 35,000  Climbing Seattle Center
05:08PM 48.6253 -124.9603 97° East 519 597 34,900  Descending Seattle Center
05:09PM 48.6067 -124.7431 97° East 518 596 35,000  Climbing Seattle Center
05:10PM 48.5881 -124.5250 97° East 515 593 34,900 -60 Descending Seattle Center
05:11PM 48.5689 -124.3058 98° East 519 597 34,900  Level Seattle Center
05:12PM 48.5492 -124.0892 98° East 519 597 34,900  Level Seattle Center
05:13PM 48.5297 -123.8722 98° East 520 598 34,900  Level Seattle Center
05:14PM 48.5092 -123.6533 98° East 525 604 35,000  Climbing Seattle Center
05:15PM 48.4922 -123.4797 98° East 524 603 35,000  Level Seattle Center
05:16PM 48.4661 -123.1969 105° East 525 604 35,000  Level Seattle Center
05:17PM 48.4333 -123.0167 97° East 530 610 35,000  Level Vancouver Center
05:18PM 48.4167 -122.8000 95° East 530 610 35,000  Level Vancouver Center
05:19PM 48.4006 -122.5489 99° East 525 604 35,000  Level Seattle Center
05:20PM 48.3772 -122.3333 99° East 525 604 35,000  Level Seattle Center
05:21PM 48.3542 -122.1181 99° East 525 604 35,000  Level Seattle Center
05:22PM 48.3261 -121.8597 99° East 525 604 35,000  Level Seattle Center
05:23PM 48.3025 -121.6444 100° East 526 605 35,000  Level Seattle Center
05:24PM 48.2781 -121.4289 105° East 527 606 35,000  Level Seattle Center
05:25PM 48.2500 -121.2667 104° East 530 610 35,000  Level Vancouver Center
05:26PM 48.2167 -121.0667 97° East 530 610 35,000  Level Vancouver Center
05:27PM 48.2000 -120.8500 89° East 530 610 35,000 -120 Level Vancouver Center
05:28PM 48.2006 -120.7717 100° East 532 612 34,900  Descending Seattle Center
05:29PM 48.1739 -120.5542 101° East 533 613 35,000  Climbing Seattle Center
05:30PM 48.1456 -120.3378 101° East 532 612 34,900 -60 Descending Seattle Center
05:31PM 48.1128 -120.0769 101° East 532 612 34,900  Level Seattle Center
05:32PM 48.0844 -119.8597 101° East 533 613 35,000  Climbing Seattle Center
05:33PM 48.0569 -119.6419 101° East 534 615 34,900 -60 Descending Seattle Center
05:34PM 48.0275 -119.4267 101° East 533 613 34,900  Level Seattle Center
05:35PM 47.9986 -119.2094 101° East 533 613 34,900  Level Seattle Center
05:36PM 47.9694 -118.9947 102° East 532 612 35,000  Climbing Seattle Center
05:37PM 47.9394 -118.7781 102° East 533 613 34,900  Descending Seattle Center
05:38PM 47.9092 -118.5650 102° East 530 610 35,000  Climbing Seattle Center
05:39PM 47.8719 -118.3089 102° East 529 609 35,000 -60 Level Seattle Center
05:40PM 47.8417 -118.0933 102° East 531 611 34,900  Descending Seattle Center
05:41PM 47.8100 -117.8778 102° East 533 613 35,000  Climbing Seattle Center
05:42PM 47.7775 -117.6597 103° East 537 618 35,000 -60 Level Seattle Center
05:43PM 47.7447 -117.4417 103° East 540 621 34,900  Descending Seattle Center
05:44PM 47.7114 -117.2225 102° East 540 621 35,000  Climbing Seattle Center
05:45PM 47.6781 -116.9978 104° East 540 621 34,900 -60 Descending Seattle Center
05:46PM 47.6414 -116.7750 104° East 544 626 34,900  Level Seattle Center
05:47PM 47.6058 -116.5581 92° East 542 624 34,900  Level Seattle Center
05:48PM 47.6008 -116.3358 90° East 546 628 34,900  Level Seattle Center
05:49PM 47.6017 -116.1122 91° East 544 626 34,900  Level Seattle Center
05:50PM 47.5981 -115.8433 91° East 545 627 34,900  Level Seattle Center
05:51PM 47.5950 -115.6367 91° East 546 628 35,000  Climbing Seattle Center
05:52PM 47.5925 -115.4136 90° East 544 626 34,900  Descending Seattle Center
05:53PM 47.5925 -115.1894 90° East 546 628 35,000  Climbing Seattle Center
05:54PM 47.5919 -114.9642 90° East 550 633 35,000  Level Seattle Center
05:55PM 47.5903 -114.6961 91° East 549 632 35,000 -60 Level Seattle Center
05:56PM 47.5878 -114.4733 91° East 549 632 34,900  Descending Seattle Center
05:57PM 47.5856 -114.2486 91° East 551 634 35,000  Climbing Seattle Center
05:58PM 47.5822 -114.0236 91° East 553 636 35,000  Level Seattle Center
05:59PM 47.5792 -113.7978 92° East 554 638 35,000 -60 Level Seattle Center
06:01PM 47.5725 -113.4853 92° East 548 631 34,900  Descending Salt Lake Center
06:02PM 47.5658 -113.2147 92° East 550 633 35,000  Climbing Salt Lake Center
06:03PM 47.5606 -112.9903 91° East 550 633 34,900  Descending Salt Lake Center
06:04PM 47.5575 -112.7667 92° East 548 631 35,000  Climbing Salt Lake Center
06:05PM 47.5514 -112.5425 93° East 548 631 34,900 -60 Descending Salt Lake Center
06:06PM 47.5444 -112.3183 93° East 547 629 34,900  Level Salt Lake Center
06:07PM 47.5358 -112.0492 93° East 549 632 34,900  Level Salt Lake Center
06:08PM 47.5289 -111.8256 93° East 548 631 34,900  Level Salt Lake Center
06:09PM 47.5217 -111.6019 93° East 548 631 34,900  Level Salt Lake Center
06:10PM 47.5133 -111.3794 93° East 551 634 34,900  Level Salt Lake Center
06:11PM 47.5028 -111.1189 93° East 552 635 34,900  Level Salt Lake Center
06:12PM 47.4942 -110.8994 93° East 547 629 34,900  Level Salt Lake Center
06:13PM 47.4858 -110.6803 93° East 541 623 35,000  Climbing Salt Lake Center
06:14PM 47.4769 -110.4617 95° East 538 619 34,900  Descending Salt Lake Center
06:15PM 47.4644 -110.2422 94° East 538 619 35,000  Climbing Salt Lake Center
06:16PM 47.4525 -109.9786 94° East 537 618 34,900  Descending Salt Lake Center
06:17PM 47.4417 -109.7533 94° East 546 628 35,000  Climbing Salt Lake Center
06:18PM 47.4314 -109.5311 95° East 546 628 34,900  Descending Salt Lake Center
06:19PM 47.4192 -109.3100 96° East 544 626 35,000  Climbing Salt Lake Center
06:20PM 47.4044 -109.0961 95° East 535 616 34,900 -60 Descending Salt Lake Center
06:21PM 47.3925 -108.8792 95° East 533 613 34,900  Level Salt Lake Center
06:22PM 47.3781 -108.6156 95° East 536 617 34,900  Level Salt Lake Center
06:24PM 47.3642 -108.3983 95° East 537 618 34,900  Level Salt Lake Center
06:25PM 47.3494 -108.1661 96° East 541 623 35,000  Climbing Salt Lake Center
06:26PM 47.3347 -107.9569 96° East 539 620 35,000  Level Salt Lake Center
06:27PM 47.3172 -107.7131 96° East 537 618 35,000  Level Salt Lake Center
06:28PM 47.3033 -107.5039 96° East 535 616 35,000  Level Salt Lake Center
06:29PM 47.2850 -107.2617 96° East 534 615 35,000  Level Salt Lake Center
06:30PM 47.2700 -107.0556 96° East 531 611 35,000  Level Salt Lake Center
06:31PM 47.2511 -106.8122 97° East 534 615 35,000  Level Salt Lake Center
06:32PM 47.2342 -106.6053 97° East 533 613 35,000  Level Salt Lake Center
06:33PM 47.2153 -106.3653 97° East 530 610 35,000  Level Salt Lake Center
06:34PM 47.1967 -106.1419 97° East 530 610 35,000  Level Salt Lake Center
06:35PM 47.1789 -105.9286 97° East 531 611 35,000  Level Salt Lake Center
06:36PM 47.1606 -105.7158 97° East 528 608 35,000  Level Salt Lake Center
06:37PM 47.1417 -105.5061 97° East 525 604 35,000  Level Salt Lake Center
06:38PM 47.1228 -105.2967 98° East 523 602 35,000  Level Salt Lake Center
06:39PM 47.1025 -105.0872 98° East 521 600 35,000 240 Level Salt Lake Center
06:40PM 47.0792 -104.8400 98° East 518 596 35,500 480 Climbing Salt Lake Center
06:41PM 47.0589 -104.6350 98° East 514 592 36,000 480 Climbing Salt Lake Center
06:42PM 47.0383 -104.4278 99° East 516 594 36,500 480 Climbing Salt Lake Center
06:43PM 47.0167 -104.2214 99° East 516 594 37,000 240 Climbing Salt Lake Center
06:44PM 46.9942 -104.0139 99° East 517 595 37,000  Level Salt Lake Center
06:45PM 46.9678 -103.7678 99° East 518 596 37,000  Level Salt Lake Center
06:46PM 46.9458 -103.5644 99° East 515 593 37,000  Level Salt Lake Center
06:47PM 46.9247 -103.3603 99° East 513 590 37,000  Level Salt Lake Center
06:48PM 46.9022 -103.1572 99° East 511 588 37,000  Level Salt Lake Center
06:49PM 46.8794 -102.9542 96° East 511 588 37,000  Level Salt Lake Center
06:50PM 46.8600 -102.7078 90° East 513 590 37,000  Level Salt Lake Center
06:51PM 46.8594 -102.4956 89° East 521 600 37,000  Level Salt Lake Center
06:52PM 46.8606 -102.2831 89° East 519 597 37,000  Level Minneapolis Center
06:53PM 46.8619 -102.0731 89° East 524 603 37,000  Level Minneapolis Center
06:54PM 46.8631 -101.8631 89° East 519 597 37,000  Level Minneapolis Center
06:55PM 46.8658 -101.6808 91° East 512 589 37,000  Level Minneapolis Center
06:56PM 46.8642 -101.4706 90° East 507 583 37,000  Level Minneapolis Center
06:57PM 46.8631 -101.2725 91° East 507 583 37,000  Level Minneapolis Center
06:58PM 46.8606 -101.0622 90° East 502 578 37,000  Level Minneapolis Center
06:59PM 46.8597 -100.8519 90° East 502 578 37,000  Level Minneapolis Center
07:00PM 46.8583 -100.6481 91° East 502 578 37,000  Level Minneapolis Center
07:01PM 46.8564 -100.4103 91° East 513 590 37,000  Level Minneapolis Center
07:02PM 46.8542 -100.2033 92° East 519 597 37,000  Level Minneapolis Center
07:03PM 46.8494 -99.9958 91° East 519 597 37,000  Level Minneapolis Center
07:04PM 46.8467 -99.7889 92° East 519 597 37,000  Level Minneapolis Center
07:05PM 46.8411 -99.5814 90° East 519 597 37,000  Level Minneapolis Center
07:06PM 46.8397 -99.3744 93° East 519 597 37,000  Level Minneapolis Center
07:07PM 46.8333 -99.1672 92° East 519 597 37,000  Level Minneapolis Center
07:08PM 46.8272 -98.9569 92° East 519 597 37,000  Level Minneapolis Center
07:09PM 46.8206 -98.7406 93° East 519 597 37,000  Level Minneapolis Center
07:10PM 46.8133 -98.5333 92° East 519 597 37,000  Level Minneapolis Center
07:11PM 46.8078 -98.3264 93° East 519 597 37,000  Level Minneapolis Center
07:12PM 46.8000 -98.1133 92° East 525 604 37,000  Level Minneapolis Center
07:13PM 46.7939 -97.9033 93° East 525 604 37,000  Level Minneapolis Center
07:14PM 46.7853 -97.6903 94° East 519 597 37,000  Level Minneapolis Center
07:15PM 46.7761 -97.4833 93° East 519 597 37,000  Level Minneapolis Center
07:16PM 46.7686 -97.2764 93° East 519 597 37,000  Level Minneapolis Center
07:17PM 46.7608 -97.0667 93° East 519 597 37,000  Level Minneapolis Center
07:18PM 46.7525 -96.8631 88° East 519 597 37,000  Level Minneapolis Center
07:19PM 46.7564 -96.6542 87° East 519 597 37,000  Level Minneapolis Center
07:20PM 46.7644 -96.4394 88° East 519 597 37,000  Level Minneapolis Center
07:21PM 46.7697 -96.2336 87° East 512 589 37,000  Level Minneapolis Center
07:22PM 46.7767 -96.0247 88° East 512 589 37,000  Level Minneapolis Center
07:23PM 46.7803 -95.8581 88° East 512 589 37,000  Level Minneapolis Center
07:24PM 46.7847 -95.6308 88° East 512 589 37,000 -60 Level Minneapolis Center
07:25PM 46.7886 -95.4250 89° East 512 589 36,900  Descending Minneapolis Center
07:26PM 46.7919 -95.2158 89° East 512 589 37,000  Climbing Minneapolis Center
07:27PM 46.7950 -95.0097 90° East 512 589 37,000  Level Minneapolis Center
07:28PM 46.7956 -94.8036 88° East 512 589 37,000  Level Minneapolis Center
07:29PM 46.8000 -94.5944 89° East 512 589 37,000 -60 Level Minneapolis Center
07:30PM 46.8019 -94.3639 89° East 517 595 36,900 -60 Descending Minneapolis Center
07:31PM 46.8036 -94.1578 89° East 511 588 36,900  Level Minneapolis Center
07:32PM 46.8067 -93.9486 90° East 511 588 37,000  Climbing Minneapolis Center
07:33PM 46.8075 -93.7394 91° East 511 588 37,000 -60 Level Minneapolis Center
07:34PM 46.8058 -93.5269 90° East 517 595 36,900  Descending Minneapolis Center
07:35PM 46.8058 -93.3208 90° East 512 589 37,000  Climbing Minneapolis Center
07:36PM 46.8053 -93.1117 90° East 512 589 36,900  Descending Minneapolis Center
07:37PM 46.8044 -92.8992 90° East 512 589 37,000  Climbing Minneapolis Center
07:38PM 46.8033 -92.6931 90° East 512 589 37,000 -60 Level Minneapolis Center
07:39PM 46.8019 -92.4808 90° East 517 595 36,900  Descending Minneapolis Center
07:40PM 46.8019 -92.2747 92° East 517 595 37,000  Climbing Minneapolis Center
07:41PM 46.7975 -92.0656 91° East 517 595 36,900 -60 Descending Minneapolis Center
07:42PM 46.7950 -91.8625 91° East 517 595 36,900  Level Minneapolis Center
07:43PM 46.7919 -91.6564 92° East 511 588 37,000  Climbing Minneapolis Center
07:44PM 46.7864 -91.4503 91° East 511 588 37,000 -60 Level Minneapolis Center
07:45PM 46.7828 -91.2411 91° East 511 588 36,900  Descending Minneapolis Center
07:46PM 46.7814 -91.0656 93° East 497 572 37,000  Climbing Minneapolis Center
07:47PM 46.7747 -90.8625 92° East 497 572 37,000  Level Minneapolis Center
07:48PM 46.7700 -90.6567 92° East 497 572 37,000  Level Minneapolis Center
07:49PM 46.7650 -90.4539 93° East 497 572 37,000  Level Minneapolis Center
07:50PM 46.7572 -90.2481 93° East 497 572 37,000  Level Minneapolis Center
07:51PM 46.7489 -90.0306 92° East 497 572 37,000  Level Minneapolis Center
07:52PM 46.7450 -89.8275 93° East 497 572 37,000  Level Minneapolis Center
07:53PM 46.7383 -89.6250 94° East 497 572 37,000  Level Minneapolis Center
07:54PM 46.7294 -89.4256 93° East 492 566 37,000  Level Minneapolis Center
07:55PM 46.7222 -89.2231 94° East 497 572 37,000  Level Minneapolis Center
07:56PM 46.7125 -89.0239 93° East 497 572 37,000  Level Minneapolis Center
07:57PM 46.7044 -88.8217 93° East 497 572 37,000  Level Minneapolis Center
07:58PM 46.6961 -88.6192 94° East 497 572 37,000  Level Minneapolis Center
07:59PM 46.6853 -88.4114 95° East 508 585 37,000  Level Minneapolis Center
08:00PM 46.6750 -88.2306 93° East 508 585 37,000  Level Minneapolis Center
08:01PM 46.6669 -88.0103 94° East 503 579 37,000  Level Minneapolis Center
08:02PM 46.6572 -87.8083 96° East 493 567 37,000  Level Minneapolis Center
08:03PM 46.6439 -87.6250 94° East 498 573 37,000  Level Minneapolis Center
08:04PM 46.6333 -87.4203 94° East 498 573 37,000  Level Minneapolis Center
08:05PM 46.6225 -87.2217 95° East 498 573 37,000  Level Minneapolis Center
08:06PM 46.6092 -87.0172 95° East 498 573 37,000  Level Minneapolis Center
08:07PM 46.5978 -86.8189 96° East 498 573 37,000  Level Minneapolis Center
08:08PM 46.5842 -86.6208 96° East 498 573 37,000  Level Minneapolis Center
08:09PM 46.5692 -86.4078 95° East 493 567 37,000  Level Minneapolis Center
08:10PM 46.5581 -86.2308 95° East 493 567 37,000  Level Minneapolis Center
08:11PM 46.5453 -86.0297 96° East 494 568 37,000  Level Minneapolis Center
08:12PM 46.5300 -85.8322 95° East 494 568 37,000  Level Minneapolis Center
08:13PM 46.5169 -85.6375 97° East 494 568 37,000  Level Minneapolis Center
08:14PM 46.5014 -85.4431 98° East 489 563 37,000  Level Minneapolis Center
08:15PM 46.4833 -85.2500 104° East 480 552 37,000  Level Toronto Center
08:16PM 46.4500 -85.0500 90° East 470 541 37,000  Level Toronto Center
08:17PM 46.4500 -84.8833 104° East 470 541 37,000  Level Toronto Center
08:18PM 46.4167 -84.6833 90° East 470 541 37,000  Level Toronto Center
08:19PM 46.4167 -84.5167 104° East 460 529 37,000  Level Toronto Center
08:20PM 46.3833 -84.3167 113° Southeast 480 552 37,000  Level Toronto Center
08:21PM 46.3333 -84.1500 121° Southeast 490 564 37,000  Level Toronto Center
08:22PM 46.2500 -83.9500 106° East 500 575 37,000  Level Toronto Center
08:23PM 46.2167 -83.7833 123° Southeast 500 575 37,000  Level Toronto Center
08:24PM 46.1333 -83.6000 116° Southeast 510 587 37,000  Level Toronto Center
08:25PM 46.0667 -83.4000 113° Southeast 510 587 37,000  Level Toronto Center
08:26PM 46.0167 -83.2333 116° Southeast 510 587 37,000  Level Toronto Center
08:27PM 45.9500 -83.0333 120° Southeast 510 587 37,000  Level Toronto Center
08:28PM 45.8833 -82.8667 126° Southeast 510 587 37,000  Level Toronto Center
08:29PM 45.8000 -82.7000 110° East 510 587 37,000  Level Toronto Center
08:30PM 45.7500 -82.5000 120° Southeast 510 587 37,000  Level Toronto Center
08:31PM 45.6833 -82.3333 115° Southeast 510 587 37,000  Level Toronto Center
08:32PM 45.6167 -82.1333 113° Southeast 510 587 37,000  Level Toronto Center
08:33PM 45.5667 -81.9667 120° Southeast 500 575 37,000 -300 Level Toronto Center
08:34PM 45.5000 -81.8000 120° Southeast 490 564 36,400 -1,020 Descending Toronto Center
08:35PM 45.4333 -81.6333 120° Southeast 480 552 35,000 -1,200 Descending Toronto Center
08:36PM 45.3667 -81.4667 120° Southeast 490 564 34,000 -1,200 Descending Toronto Center
08:37PM 45.3000 -81.3000 117° Southeast 490 564 32,700 -1,200 Descending Toronto Center
08:38PM 45.2333 -81.1167 148° Southeast 490 564 31,600 -1,500 Descending Toronto Center
08:39PM 45.1000 -81.0000 149° Southeast 520 598 29,700 -1,920 Descending Toronto Center
08:40PM 44.9833 -80.9000 140° Southeast 510 587 27,800 -1,800 Descending Toronto Center
08:41PM 44.8833 -80.7833 149° Southeast 500 575 26,100 -1,740 Descending Toronto Center
08:42PM 44.7667 -80.6833 149° Southeast 490 564 24,400 -1,740 Descending Toronto Center
08:44PM 44.5500 -80.5000 144° Southeast 460 529 21,000 -1,800 Descending Toronto Center
08:45PM 44.4500 -80.4000 149° Southeast 440 506 19,100 -1,800 Descending Toronto Center
08:46PM 44.3500 -80.3167 149° Southeast 430 495 17,400 -1,800 Descending Toronto Center
08:47PM 44.2500 -80.2333 149° Southeast 420 483 15,500 -1,800 Descending Toronto Center
08:48PM 44.1500 -80.1500 139° Southeast 400 460 13,900 -1,500 Descending Toronto Center
08:49PM 44.0667 -80.0500 150° Southeast 390 449 12,500 -1,020 Descending Toronto Center
08:50PM 43.9833 -79.9833 133° Southeast 360 414 11,900 -300 Descending Toronto Center
08:51PM 43.9167 -79.8833 144° Southeast 330 380 12,000 -300 Climbing Toronto Center
08:52PM 43.8500 -79.8167 144° Southeast 330 380 11,400 -900 Descending Toronto Center
08:53PM 43.7833 -79.7500 103° East 310 357 10,300 -1,560 Descending Toronto Center
08:54PM 43.7667 -79.6500 36° Northeast 250 288 8,300 -1,860 Descending Toronto Center
08:55PM 43.8000 -79.6167 36° Northeast 200 230 6,600 -1,800 Descending Toronto Center
08:56PM 43.8500 -79.5667 90° East 190 219 4,800 -1,380 Descending Toronto Center
08:57PM 43.8500 -79.4667 180° South 200 230 3,900 -420 Descending Toronto Center
08:58PM 43.8000 -79.4667 227° Southwest 230 265 4,000 -540 Climbing Toronto Center
08:59PM 43.7667 -79.5167 227° Southwest 200 230 2,900 -1,200 Descending Toronto Center
09:00PM 43.7333 -79.5667 200° South 170 196 1,700 -960 Descending Toronto Center
09:01PM 43.7000 -79.5833 200° South 150 173 1,000 -720 Descending Toronto Center